sensor_id;sensor_type;location;lat;lon;timestamp;P1;durP1;ratioP1;P2;durP2;ratioP2
2416;SDS011;1219;48.736;9.330;2023-05-10T00:00:05;1.83;;;1.73;;
2416;SDS011;1219;48.736;9.330;2023-05-10T00:02:32;1.63;;;1.53;;
2416;SDS011;1219;48.736;9.330;2023-05-10T00:04:57;1.50;;;1.40;;
2416;SDS011;1219;48.736;9.330;2023-05-10T00:07:23;2.03;;;1.43;;
2416;SDS011;1219;48.736;9.330;2023-05-10T00:09:50;6.63;;;1.83;;
2416;SDS011;1219;48.736;9.330;2023-05-10T00:12:16;3.00;;;1.67;;
2416;SDS011;1219;48.736;9.330;2023-05-10T00:14:42;2.70;;;1.80;;
2416;SDS011;1219;48.736;9.330;2023-05-10T00:17:08;2.07;;;1.30;;
2416;SDS011;1219;48.736;9.330;2023-05-10T00:19:34;1.50;;;1.40;;
2416;SDS011;1219;48.736;9.330;2023-05-10T00:22:00;2.47;;;1.40;;
2416;SDS011;1219;48.736;9.330;2023-05-10T00:24:26;4.80;;;1.60;;
2416;SDS011;1219;48.736;9.330;2023-05-10T00:26:52;3.57;;;1.60;;
2416;SDS011;1219;48.736;9.330;2023-05-10T00:29:18;2.33;;;1.17;;
2416;SDS011;1219;48.736;9.330;2023-05-10T00:31:44;2.60;;;1.40;;
2416;SDS011;1219;48.736;9.330;2023-05-10T00:34:10;1.57;;;1.37;;
2416;SDS011;1219;48.736;9.330;2023-05-10T00:36:36;4.33;;;1.20;;
2416;SDS011;1219;48.736;9.330;2023-05-10T00:39:02;6.43;;;1.60;;
2416;SDS011;1219;48.736;9.330;2023-05-10T00:41:28;3.27;;;1.10;;
2416;SDS011;1219;48.736;9.330;2023-05-10T00:43:57;2.27;;;1.03;;
2416;SDS011;1219;48.736;9.330;2023-05-10T00:46:23;1.30;;;1.20;;
2416;SDS011;1219;48.736;9.330;2023-05-10T00:48:49;1.60;;;1.10;;
2416;SDS011;1219;48.736;9.330;2023-05-10T00:51:15;1.30;;;1.20;;
2416;SDS011;1219;48.736;9.330;2023-05-10T00:53:41;3.10;;;0.97;;
2416;SDS011;1219;48.736;9.330;2023-05-10T00:56:07;3.30;;;1.07;;
2416;SDS011;1219;48.736;9.330;2023-05-10T00:58:33;0.80;;;0.80;;
2416;SDS011;1219;48.736;9.330;2023-05-10T01:00:59;1.20;;;0.97;;
2416;SDS011;1219;48.736;9.330;2023-05-10T01:03:26;1.73;;;0.80;;
2416;SDS011;1219;48.736;9.330;2023-05-10T01:05:52;1.10;;;1.00;;
2416;SDS011;1219;48.736;9.330;2023-05-10T01:08:18;0.90;;;0.90;;
2416;SDS011;1219;48.736;9.330;2023-05-10T01:10:44;2.10;;;1.03;;
2416;SDS011;1219;48.736;9.330;2023-05-10T01:13:10;0.83;;;0.83;;
2416;SDS011;1219;48.736;9.330;2023-05-10T01:15:37;2.17;;;1.10;;
2416;SDS011;1219;48.736;9.330;2023-05-10T01:18:03;3.70;;;0.90;;
2416;SDS011;1219;48.736;9.330;2023-05-10T01:20:32;1.00;;;1.00;;
2416;SDS011;1219;48.736;9.330;2023-05-10T01:36:26;0.83;;;0.80;;
2416;SDS011;1219;48.736;9.330;2023-05-10T01:39:01;1.87;;;0.80;;
2416;SDS011;1219;48.736;9.330;2023-05-10T01:41:32;1.03;;;0.80;;
2416;SDS011;1219;48.736;9.330;2023-05-10T01:46:27;1.00;;;0.80;;
2416;SDS011;1219;48.736;9.330;2023-05-10T01:48:54;0.90;;;0.70;;
2416;SDS011;1219;48.736;9.330;2023-05-10T01:51:22;1.10;;;1.00;;
2416;SDS011;1219;48.736;9.330;2023-05-10T01:53:48;1.10;;;0.90;;
2416;SDS011;1219;48.736;9.330;2023-05-10T01:56:15;1.10;;;1.00;;
2416;SDS011;1219;48.736;9.330;2023-05-10T01:58:43;1.93;;;0.87;;
2416;SDS011;1219;48.736;9.330;2023-05-10T02:01:10;5.13;;;1.00;;
2416;SDS011;1219;48.736;9.330;2023-05-10T02:03:37;1.10;;;0.90;;
2416;SDS011;1219;48.736;9.330;2023-05-10T02:06:04;0.97;;;0.83;;
2416;SDS011;1219;48.736;9.330;2023-05-10T02:08:31;4.10;;;0.97;;
2416;SDS011;1219;48.736;9.330;2023-05-10T02:10:58;2.70;;;1.00;;
2416;SDS011;1219;48.736;9.330;2023-05-10T02:13:25;2.90;;;0.90;;
2416;SDS011;1219;48.736;9.330;2023-05-10T02:15:52;1.53;;;0.93;;
2416;SDS011;1219;48.736;9.330;2023-05-10T02:18:18;1.20;;;1.00;;
2416;SDS011;1219;48.736;9.330;2023-05-10T02:20:45;1.10;;;1.00;;
2416;SDS011;1219;48.736;9.330;2023-05-10T02:23:11;3.47;;;1.20;;
2416;SDS011;1219;48.736;9.330;2023-05-10T02:25:38;3.10;;;1.00;;
2416;SDS011;1219;48.736;9.330;2023-05-10T02:28:04;1.10;;;1.00;;
2416;SDS011;1219;48.736;9.330;2023-05-10T02:30:31;9.90;;;1.20;;
2416;SDS011;1219;48.736;9.330;2023-05-10T02:32:58;2.60;;;1.00;;
2416;SDS011;1219;48.736;9.330;2023-05-10T02:35:24;1.10;;;0.90;;
2416;SDS011;1219;48.736;9.330;2023-05-10T02:37:51;2.37;;;1.03;;
2416;SDS011;1219;48.736;9.330;2023-05-10T02:40:18;4.10;;;1.07;;
2416;SDS011;1219;48.736;9.330;2023-05-10T02:42:45;2.00;;;0.90;;
2416;SDS011;1219;48.736;9.330;2023-05-10T02:45:14;1.37;;;0.90;;
2416;SDS011;1219;48.736;9.330;2023-05-10T02:47:41;7.80;;;1.30;;
2416;SDS011;1219;48.736;9.330;2023-05-10T02:50:07;5.30;;;1.30;;
2416;SDS011;1219;48.736;9.330;2023-05-10T02:52:36;9.63;;;1.70;;
2416;SDS011;1219;48.736;9.330;2023-05-10T02:55:04;1.60;;;1.07;;
2416;SDS011;1219;48.736;9.330;2023-05-10T02:57:34;1.13;;;1.03;;
2416;SDS011;1219;48.736;9.330;2023-05-10T03:00:03;3.17;;;1.10;;
2416;SDS011;1219;48.736;9.330;2023-05-10T03:02:29;4.40;;;1.30;;
2416;SDS011;1219;48.736;9.330;2023-05-10T03:04:56;2.73;;;1.20;;
2416;SDS011;1219;48.736;9.330;2023-05-10T03:07:22;1.87;;;1.00;;
2416;SDS011;1219;48.736;9.330;2023-05-10T03:09:48;6.50;;;1.40;;
2416;SDS011;1219;48.736;9.330;2023-05-10T03:13:01;2.67;;;1.20;;
2416;SDS011;1219;48.736;9.330;2023-05-10T03:15:07;3.00;;;1.87;;
2416;SDS011;1219;48.736;9.330;2023-05-10T03:17:47;3.73;;;1.10;;
2416;SDS011;1219;48.736;9.330;2023-05-10T03:20:21;1.83;;;1.00;;
2416;SDS011;1219;48.736;9.330;2023-05-10T03:22:50;8.17;;;1.40;;
2416;SDS011;1219;48.736;9.330;2023-05-10T03:25:17;2.50;;;1.30;;
2416;SDS011;1219;48.736;9.330;2023-05-10T03:27:44;3.10;;;1.27;;
2416;SDS011;1219;48.736;9.330;2023-05-10T03:30:11;0.90;;;0.90;;
2416;SDS011;1219;48.736;9.330;2023-05-10T03:32:37;3.50;;;1.20;;
2416;SDS011;1219;48.736;9.330;2023-05-10T03:35:07;5.50;;;1.30;;
2416;SDS011;1219;48.736;9.330;2023-05-10T03:37:33;2.23;;;0.93;;
2416;SDS011;1219;48.736;9.330;2023-05-10T03:40:00;4.13;;;1.60;;
2416;SDS011;1219;48.736;9.330;2023-05-10T03:42:26;1.77;;;1.00;;
2416;SDS011;1219;48.736;9.330;2023-05-10T03:44:52;1.37;;;1.10;;
2416;SDS011;1219;48.736;9.330;2023-05-10T03:47:18;1.20;;;1.10;;
2416;SDS011;1219;48.736;9.330;2023-05-10T03:49:44;3.37;;;1.07;;
2416;SDS011;1219;48.736;9.330;2023-05-10T03:52:10;1.93;;;1.20;;
2416;SDS011;1219;48.736;9.330;2023-05-10T03:54:37;2.10;;;1.10;;
2416;SDS011;1219;48.736;9.330;2023-05-10T03:57:03;1.50;;;1.10;;
2416;SDS011;1219;48.736;9.330;2023-05-10T03:59:29;2.00;;;0.90;;
2416;SDS011;1219;48.736;9.330;2023-05-10T04:01:55;1.20;;;1.10;;
2416;SDS011;1219;48.736;9.330;2023-05-10T04:04:21;1.67;;;1.33;;
2416;SDS011;1219;48.736;9.330;2023-05-10T04:06:48;3.60;;;1.10;;
2416;SDS011;1219;48.736;9.330;2023-05-10T04:09:14;1.20;;;1.10;;
2416;SDS011;1219;48.736;9.330;2023-05-10T04:11:41;1.10;;;1.00;;
2416;SDS011;1219;48.736;9.330;2023-05-10T04:14:07;3.70;;;1.30;;
2416;SDS011;1219;48.736;9.330;2023-05-10T04:16:33;1.73;;;1.50;;
2416;SDS011;1219;48.736;9.330;2023-05-10T04:18:59;1.90;;;1.23;;
2416;SDS011;1219;48.736;9.330;2023-05-10T04:21:25;1.80;;;1.40;;
2416;SDS011;1219;48.736;9.330;2023-05-10T04:23:51;1.30;;;1.20;;
2416;SDS011;1219;48.736;9.330;2023-05-10T04:26:17;2.40;;;1.20;;
2416;SDS011;1219;48.736;9.330;2023-05-10T04:28:43;3.27;;;1.33;;
2416;SDS011;1219;48.736;9.330;2023-05-10T04:31:09;2.97;;;1.30;;
2416;SDS011;1219;48.736;9.330;2023-05-10T04:33:36;3.27;;;1.63;;
2416;SDS011;1219;48.736;9.330;2023-05-10T04:36:02;5.27;;;1.63;;
2416;SDS011;1219;48.736;9.330;2023-05-10T04:38:28;2.53;;;1.47;;
2416;SDS011;1219;48.736;9.330;2023-05-10T04:40:55;4.23;;;1.80;;
2416;SDS011;1219;48.736;9.330;2023-05-10T04:43:29;17.30;;;2.00;;
2416;SDS011;1219;48.736;9.330;2023-05-10T04:45:58;2.77;;;1.50;;
2416;SDS011;1219;48.736;9.330;2023-05-10T04:48:24;1.60;;;1.40;;
2416;SDS011;1219;48.736;9.330;2023-05-10T04:50:50;3.53;;;1.67;;
2416;SDS011;1219;48.736;9.330;2023-05-10T04:53:16;4.40;;;1.30;;
2416;SDS011;1219;48.736;9.330;2023-05-10T04:55:42;1.50;;;1.40;;
2416;SDS011;1219;48.736;9.330;2023-05-10T04:58:08;2.03;;;1.37;;
2416;SDS011;1219;48.736;9.330;2023-05-10T05:00:34;1.50;;;1.40;;
2416;SDS011;1219;48.736;9.330;2023-05-10T05:03:00;2.03;;;1.20;;
2416;SDS011;1219;48.736;9.330;2023-05-10T05:05:26;1.53;;;1.43;;
2416;SDS011;1219;48.736;9.330;2023-05-10T05:07:52;2.40;;;1.20;;
2416;SDS011;1219;48.736;9.330;2023-05-10T05:10:18;1.67;;;1.57;;
2416;SDS011;1219;48.736;9.330;2023-05-10T05:12:44;1.40;;;1.30;;
2416;SDS011;1219;48.736;9.330;2023-05-10T05:15:10;1.60;;;1.50;;
2416;SDS011;1219;48.736;9.330;2023-05-10T05:17:36;1.40;;;1.30;;
2416;SDS011;1219;48.736;9.330;2023-05-10T05:20:02;1.47;;;1.37;;
2416;SDS011;1219;48.736;9.330;2023-05-10T05:22:28;1.30;;;1.17;;
2416;SDS011;1219;48.736;9.330;2023-05-10T05:24:55;1.60;;;1.50;;
2416;SDS011;1219;48.736;9.330;2023-05-10T05:27:21;1.63;;;1.20;;
2416;SDS011;1219;48.736;9.330;2023-05-10T05:29:49;1.40;;;1.30;;
2416;SDS011;1219;48.736;9.330;2023-05-10T05:32:16;1.50;;;1.40;;
2416;SDS011;1219;48.736;9.330;2023-05-10T05:34:44;1.50;;;1.40;;
2416;SDS011;1219;48.736;9.330;2023-05-10T05:37:16;1.57;;;1.40;;
2416;SDS011;1219;48.736;9.330;2023-05-10T05:39:43;1.60;;;1.50;;
2416;SDS011;1219;48.736;9.330;2023-05-10T05:42:10;1.80;;;1.60;;
2416;SDS011;1219;48.736;9.330;2023-05-10T05:44:36;3.60;;;1.60;;
2416;SDS011;1219;48.736;9.330;2023-05-10T05:47:02;2.23;;;1.50;;
2416;SDS011;1219;48.736;9.330;2023-05-10T05:49:28;3.17;;;1.87;;
2416;SDS011;1219;48.736;9.330;2023-05-10T05:51:54;1.90;;;1.40;;
2416;SDS011;1219;48.736;9.330;2023-05-10T05:54:20;2.17;;;1.53;;
2416;SDS011;1219;48.736;9.330;2023-05-10T05:56:46;1.43;;;1.33;;
2416;SDS011;1219;48.736;9.330;2023-05-10T05:59:12;1.60;;;1.50;;
2416;SDS011;1219;48.736;9.330;2023-05-10T06:01:38;1.90;;;1.80;;
2416;SDS011;1219;48.736;9.330;2023-05-10T06:04:04;1.50;;;1.40;;
2416;SDS011;1219;48.736;9.330;2023-05-10T06:06:30;1.63;;;1.53;;
2416;SDS011;1219;48.736;9.330;2023-05-10T06:08:57;1.53;;;1.43;;
2416;SDS011;1219;48.736;9.330;2023-05-10T06:11:23;1.50;;;1.40;;
2416;SDS011;1219;48.736;9.330;2023-05-10T06:13:49;1.67;;;1.57;;
2416;SDS011;1219;48.736;9.330;2023-05-10T06:16:15;6.77;;;2.07;;
2416;SDS011;1219;48.736;9.330;2023-05-10T06:18:41;3.53;;;1.50;;
2416;SDS011;1219;48.736;9.330;2023-05-10T06:21:07;1.87;;;1.50;;
2416;SDS011;1219;48.736;9.330;2023-05-10T06:23:33;2.80;;;1.80;;
2416;SDS011;1219;48.736;9.330;2023-05-10T06:25:59;1.70;;;1.60;;
2416;SDS011;1219;48.736;9.330;2023-05-10T06:28:24;4.83;;;1.60;;
2416;SDS011;1219;48.736;9.330;2023-05-10T06:30:50;2.13;;;1.63;;
2416;SDS011;1219;48.736;9.330;2023-05-10T06:33:16;2.00;;;1.47;;
2416;SDS011;1219;48.736;9.330;2023-05-10T06:35:42;2.93;;;1.50;;
2416;SDS011;1219;48.736;9.330;2023-05-10T06:38:08;1.60;;;1.50;;
2416;SDS011;1219;48.736;9.330;2023-05-10T06:40:34;2.67;;;2.47;;
2416;SDS011;1219;48.736;9.330;2023-05-10T06:43:00;1.47;;;1.37;;
2416;SDS011;1219;48.736;9.330;2023-05-10T06:45:27;1.70;;;1.60;;
2416;SDS011;1219;48.736;9.330;2023-05-10T06:47:53;1.50;;;1.40;;
2416;SDS011;1219;48.736;9.330;2023-05-10T06:50:19;1.63;;;1.53;;
2416;SDS011;1219;48.736;9.330;2023-05-10T06:52:45;2.50;;;1.40;;
2416;SDS011;1219;48.736;9.330;2023-05-10T06:55:11;1.83;;;1.47;;
2416;SDS011;1219;48.736;9.330;2023-05-10T06:57:37;4.10;;;1.60;;
2416;SDS011;1219;48.736;9.330;2023-05-10T07:00:03;1.77;;;1.40;;
2416;SDS011;1219;48.736;9.330;2023-05-10T07:02:29;1.50;;;1.40;;
2416;SDS011;1219;48.736;9.330;2023-05-10T07:04:55;2.57;;;1.53;;
2416;SDS011;1219;48.736;9.330;2023-05-10T07:07:22;1.30;;;1.20;;
2416;SDS011;1219;48.736;9.330;2023-05-10T07:09:48;1.40;;;1.30;;
2416;SDS011;1219;48.736;9.330;2023-05-10T07:12:15;1.40;;;1.30;;
2416;SDS011;1219;48.736;9.330;2023-05-10T07:14:41;3.53;;;2.17;;
2416;SDS011;1219;48.736;9.330;2023-05-10T07:17:07;2.57;;;1.50;;
2416;SDS011;1219;48.736;9.330;2023-05-10T07:19:33;2.83;;;1.60;;
2416;SDS011;1219;48.736;9.330;2023-05-10T07:21:59;1.50;;;1.40;;
2416;SDS011;1219;48.736;9.330;2023-05-10T07:24:25;2.30;;;1.43;;
2416;SDS011;1219;48.736;9.330;2023-05-10T07:26:51;1.20;;;1.10;;
2416;SDS011;1219;48.736;9.330;2023-05-10T07:29:17;2.17;;;1.40;;
2416;SDS011;1219;48.736;9.330;2023-05-10T07:31:43;1.33;;;1.23;;
2416;SDS011;1219;48.736;9.330;2023-05-10T07:34:09;1.80;;;1.70;;
2416;SDS011;1219;48.736;9.330;2023-05-10T07:36:35;1.70;;;1.60;;
2416;SDS011;1219;48.736;9.330;2023-05-10T07:39:01;1.90;;;1.80;;
2416;SDS011;1219;48.736;9.330;2023-05-10T07:41:27;2.50;;;1.70;;
2416;SDS011;1219;48.736;9.330;2023-05-10T07:43:53;2.13;;;1.60;;
2416;SDS011;1219;48.736;9.330;2023-05-10T07:46:19;3.33;;;1.73;;
2416;SDS011;1219;48.736;9.330;2023-05-10T07:48:45;1.87;;;1.50;;
2416;SDS011;1219;48.736;9.330;2023-05-10T07:51:11;1.67;;;1.57;;
2416;SDS011;1219;48.736;9.330;2023-05-10T07:53:37;1.93;;;1.47;;
2416;SDS011;1219;48.736;9.330;2023-05-10T07:58:48;1.77;;;1.67;;
2416;SDS011;1219;48.736;9.330;2023-05-10T08:01:14;1.63;;;1.53;;
2416;SDS011;1219;48.736;9.330;2023-05-10T08:03:40;1.60;;;1.50;;
2416;SDS011;1219;48.736;9.330;2023-05-10T08:06:06;3.17;;;1.40;;
2416;SDS011;1219;48.736;9.330;2023-05-10T08:08:32;2.37;;;1.70;;
2416;SDS011;1219;48.736;9.330;2023-05-10T08:10:58;1.53;;;1.43;;
2416;SDS011;1219;48.736;9.330;2023-05-10T08:13:23;1.50;;;1.40;;
2416;SDS011;1219;48.736;9.330;2023-05-10T08:15:49;1.57;;;1.30;;
2416;SDS011;1219;48.736;9.330;2023-05-10T08:18:17;1.60;;;1.50;;
2416;SDS011;1219;48.736;9.330;2023-05-10T08:20:43;1.50;;;1.40;;
2416;SDS011;1219;48.736;9.330;2023-05-10T08:23:09;1.60;;;1.50;;
2416;SDS011;1219;48.736;9.330;2023-05-10T08:25:36;3.80;;;1.77;;
2416;SDS011;1219;48.736;9.330;2023-05-10T08:28:02;1.60;;;1.50;;
2416;SDS011;1219;48.736;9.330;2023-05-10T08:30:28;1.60;;;1.50;;
2416;SDS011;1219;48.736;9.330;2023-05-10T08:32:54;4.30;;;1.80;;
2416;SDS011;1219;48.736;9.330;2023-05-10T08:35:20;1.60;;;1.50;;
2416;SDS011;1219;48.736;9.330;2023-05-10T08:37:46;1.83;;;1.73;;
2416;SDS011;1219;48.736;9.330;2023-05-10T08:40:12;2.37;;;1.60;;
2416;SDS011;1219;48.736;9.330;2023-05-10T08:42:40;2.10;;;2.00;;
2416;SDS011;1219;48.736;9.330;2023-05-10T08:45:07;3.63;;;2.00;;
2416;SDS011;1219;48.736;9.330;2023-05-10T08:47:34;3.23;;;1.53;;
2416;SDS011;1219;48.736;9.330;2023-05-10T08:50:01;1.50;;;1.40;;
2416;SDS011;1219;48.736;9.330;2023-05-10T08:52:28;1.77;;;1.67;;
2416;SDS011;1219;48.736;9.330;2023-05-10T08:54:55;1.90;;;1.40;;
2416;SDS011;1219;48.736;9.330;2023-05-10T08:57:21;3.63;;;1.60;;
2416;SDS011;1219;48.736;9.330;2023-05-10T08:59:47;2.23;;;1.37;;
2416;SDS011;1219;48.736;9.330;2023-05-10T09:02:14;3.17;;;1.50;;
2416;SDS011;1219;48.736;9.330;2023-05-10T09:04:40;1.43;;;1.33;;
2416;SDS011;1219;48.736;9.330;2023-05-10T09:07:06;1.30;;;1.20;;
2416;SDS011;1219;48.736;9.330;2023-05-10T09:09:32;2.43;;;1.33;;
2416;SDS011;1219;48.736;9.330;2023-05-10T09:11:59;1.63;;;1.53;;
2416;SDS011;1219;48.736;9.330;2023-05-10T09:14:25;1.40;;;1.30;;
2416;SDS011;1219;48.736;9.330;2023-05-10T09:16:52;1.73;;;1.63;;
2416;SDS011;1219;48.736;9.330;2023-05-10T09:19:19;1.40;;;1.30;;
2416;SDS011;1219;48.736;9.330;2023-05-10T09:21:45;1.40;;;1.30;;
2416;SDS011;1219;48.736;9.330;2023-05-10T09:24:11;1.60;;;1.50;;
2416;SDS011;1219;48.736;9.330;2023-05-10T09:26:45;2.20;;;1.33;;
2416;SDS011;1219;48.736;9.330;2023-05-10T09:29:15;1.83;;;1.60;;
2416;SDS011;1219;48.736;9.330;2023-05-10T09:34:11;1.43;;;1.33;;
2416;SDS011;1219;48.736;9.330;2023-05-10T09:36:48;1.57;;;1.47;;
2416;SDS011;1219;48.736;9.330;2023-05-10T09:39:15;1.60;;;1.50;;
2416;SDS011;1219;48.736;9.330;2023-05-10T09:41:41;1.50;;;1.40;;
2416;SDS011;1219;48.736;9.330;2023-05-10T09:44:08;2.80;;;1.40;;
2416;SDS011;1219;48.736;9.330;2023-05-10T09:46:36;1.77;;;1.40;;
2416;SDS011;1219;48.736;9.330;2023-05-10T09:49:02;4.00;;;1.83;;
2416;SDS011;1219;48.736;9.330;2023-05-10T09:51:28;1.50;;;1.40;;
2416;SDS011;1219;48.736;9.330;2023-05-10T09:54:10;1.93;;;1.30;;
2416;SDS011;1219;48.736;9.330;2023-05-10T09:56:36;1.67;;;1.23;;
2416;SDS011;1219;48.736;9.330;2023-05-10T09:59:05;2.50;;;1.30;;
2416;SDS011;1219;48.736;9.330;2023-05-10T10:01:31;1.50;;;1.30;;
2416;SDS011;1219;48.736;9.330;2023-05-10T10:03:57;1.53;;;1.30;;
2416;SDS011;1219;48.736;9.330;2023-05-10T10:06:23;1.50;;;1.40;;
2416;SDS011;1219;48.736;9.330;2023-05-10T10:08:50;1.60;;;1.30;;
2416;SDS011;1219;48.736;9.330;2023-05-10T10:11:16;2.37;;;1.40;;
2416;SDS011;1219;48.736;9.330;2023-05-10T10:13:42;1.57;;;1.47;;
2416;SDS011;1219;48.736;9.330;2023-05-10T10:16:08;2.07;;;1.50;;
2416;SDS011;1219;48.736;9.330;2023-05-10T10:18:35;2.07;;;1.70;;
2416;SDS011;1219;48.736;9.330;2023-05-10T10:21:05;1.80;;;1.40;;
2416;SDS011;1219;48.736;9.330;2023-05-10T10:23:34;1.40;;;1.30;;
2416;SDS011;1219;48.736;9.330;2023-05-10T10:26:01;1.60;;;1.50;;
2416;SDS011;1219;48.736;9.330;2023-05-10T10:28:34;2.40;;;1.53;;
2416;SDS011;1219;48.736;9.330;2023-05-10T10:31:12;1.27;;;1.17;;
2416;SDS011;1219;48.736;9.330;2023-05-10T10:36:13;2.10;;;1.30;;
2416;SDS011;1219;48.736;9.330;2023-05-10T10:41:26;2.50;;;1.40;;
2416;SDS011;1219;48.736;9.330;2023-05-10T10:46:58;5.43;;;1.40;;
2416;SDS011;1219;48.736;9.330;2023-05-10T10:49:24;2.67;;;2.47;;
2416;SDS011;1219;48.736;9.330;2023-05-10T10:54:35;2.37;;;1.50;;
2416;SDS011;1219;48.736;9.330;2023-05-10T10:57:14;1.47;;;1.37;;
2416;SDS011;1219;48.736;9.330;2023-05-10T10:59:43;1.30;;;1.20;;
2416;SDS011;1219;48.736;9.330;2023-05-10T11:02:10;5.73;;;1.40;;
2416;SDS011;1219;48.736;9.330;2023-05-10T11:04:56;1.10;;;1.10;;
2416;SDS011;1219;48.736;9.330;2023-05-10T11:07:22;2.53;;;1.47;;
2416;SDS011;1219;48.736;9.330;2023-05-10T11:09:48;1.60;;;1.50;;
2416;SDS011;1219;48.736;9.330;2023-05-10T11:12:14;3.67;;;1.40;;
2416;SDS011;1219;48.736;9.330;2023-05-10T11:14:40;4.87;;;1.70;;
2416;SDS011;1219;48.736;9.330;2023-05-10T11:17:22;2.47;;;1.50;;
2416;SDS011;1219;48.736;9.330;2023-05-10T11:22:49;1.23;;;1.20;;
2416;SDS011;1219;48.736;9.330;2023-05-10T11:25:16;2.40;;;1.30;;
2416;SDS011;1219;48.736;9.330;2023-05-10T11:27:42;7.90;;;1.40;;
2416;SDS011;1219;48.736;9.330;2023-05-10T11:30:09;4.00;;;1.40;;
2416;SDS011;1219;48.736;9.330;2023-05-10T11:32:39;1.53;;;1.43;;
2416;SDS011;1219;48.736;9.330;2023-05-10T11:35:06;3.17;;;1.20;;
2416;SDS011;1219;48.736;9.330;2023-05-10T11:37:32;1.27;;;1.20;;
2416;SDS011;1219;48.736;9.330;2023-05-10T11:39:59;2.17;;;1.43;;
2416;SDS011;1219;48.736;9.330;2023-05-10T11:42:25;1.27;;;1.20;;
2416;SDS011;1219;48.736;9.330;2023-05-10T11:44:51;1.40;;;1.30;;
2416;SDS011;1219;48.736;9.330;2023-05-10T11:47:17;1.30;;;1.20;;
2416;SDS011;1219;48.736;9.330;2023-05-10T11:49:43;1.37;;;1.27;;
2416;SDS011;1219;48.736;9.330;2023-05-10T11:52:09;1.43;;;1.33;;
2416;SDS011;1219;48.736;9.330;2023-05-10T11:54:45;1.30;;;1.20;;
2416;SDS011;1219;48.736;9.330;2023-05-10T11:57:11;1.57;;;1.30;;
2416;SDS011;1219;48.736;9.330;2023-05-10T11:59:37;2.40;;;1.30;;
2416;SDS011;1219;48.736;9.330;2023-05-10T12:02:03;1.43;;;1.30;;
2416;SDS011;1219;48.736;9.330;2023-05-10T12:04:29;10.30;;;1.40;;
2416;SDS011;1219;48.736;9.330;2023-05-10T12:06:55;1.30;;;1.20;;
2416;SDS011;1219;48.736;9.330;2023-05-10T12:09:21;1.40;;;1.30;;
2416;SDS011;1219;48.736;9.330;2023-05-10T12:11:47;3.43;;;1.30;;
2416;SDS011;1219;48.736;9.330;2023-05-10T12:14:13;1.60;;;1.40;;
2416;SDS011;1219;48.736;9.330;2023-05-10T12:16:40;5.30;;;1.50;;
2416;SDS011;1219;48.736;9.330;2023-05-10T12:19:08;2.03;;;1.40;;
2416;SDS011;1219;48.736;9.330;2023-05-10T12:21:34;2.50;;;1.50;;
2416;SDS011;1219;48.736;9.330;2023-05-10T12:24:01;3.50;;;1.40;;
2416;SDS011;1219;48.736;9.330;2023-05-10T12:26:27;3.13;;;1.30;;
2416;SDS011;1219;48.736;9.330;2023-05-10T12:28:53;2.50;;;1.33;;
2416;SDS011;1219;48.736;9.330;2023-05-10T12:31:19;2.00;;;1.50;;
2416;SDS011;1219;48.736;9.330;2023-05-10T12:33:46;1.40;;;1.30;;
2416;SDS011;1219;48.736;9.330;2023-05-10T12:36:14;1.40;;;1.30;;
2416;SDS011;1219;48.736;9.330;2023-05-10T12:38:44;6.60;;;1.60;;
2416;SDS011;1219;48.736;9.330;2023-05-10T12:41:16;1.73;;;1.30;;
2416;SDS011;1219;48.736;9.330;2023-05-10T12:43:42;1.90;;;1.80;;
2416;SDS011;1219;48.736;9.330;2023-05-10T12:46:12;1.60;;;1.50;;
2416;SDS011;1219;48.736;9.330;2023-05-10T12:48:39;3.13;;;1.50;;
2416;SDS011;1219;48.736;9.330;2023-05-10T12:51:05;2.00;;;1.40;;
2416;SDS011;1219;48.736;9.330;2023-05-10T12:53:34;1.63;;;1.30;;
2416;SDS011;1219;48.736;9.330;2023-05-10T12:56:00;1.93;;;1.60;;
2416;SDS011;1219;48.736;9.330;2023-05-10T12:58:26;2.13;;;1.60;;
2416;SDS011;1219;48.736;9.330;2023-05-10T13:00:52;1.90;;;1.80;;
2416;SDS011;1219;48.736;9.330;2023-05-10T13:03:18;1.83;;;1.57;;
2416;SDS011;1219;48.736;9.330;2023-05-10T13:05:44;7.53;;;2.27;;
2416;SDS011;1219;48.736;9.330;2023-05-10T13:08:10;6.43;;;1.70;;
2416;SDS011;1219;48.736;9.330;2023-05-10T13:10:36;2.93;;;1.70;;
2416;SDS011;1219;48.736;9.330;2023-05-10T13:13:02;1.50;;;1.40;;
2416;SDS011;1219;48.736;9.330;2023-05-10T13:15:28;2.63;;;1.67;;
2416;SDS011;1219;48.736;9.330;2023-05-10T13:17:54;2.50;;;1.80;;
2416;SDS011;1219;48.736;9.330;2023-05-10T13:20:20;4.00;;;1.97;;
2416;SDS011;1219;48.736;9.330;2023-05-10T13:22:46;2.17;;;1.70;;
2416;SDS011;1219;48.736;9.330;2023-05-10T13:25:12;2.07;;;1.90;;
2416;SDS011;1219;48.736;9.330;2023-05-10T13:27:39;2.50;;;1.90;;
2416;SDS011;1219;48.736;9.330;2023-05-10T13:30:05;3.20;;;1.83;;
2416;SDS011;1219;48.736;9.330;2023-05-10T13:32:31;5.47;;;2.07;;
2416;SDS011;1219;48.736;9.330;2023-05-10T13:34:58;2.07;;;1.87;;
2416;SDS011;1219;48.736;9.330;2023-05-10T13:37:24;8.80;;;2.07;;
2416;SDS011;1219;48.736;9.330;2023-05-10T13:39:50;2.00;;;1.63;;
2416;SDS011;1219;48.736;9.330;2023-05-10T13:42:16;2.17;;;1.90;;
2416;SDS011;1219;48.736;9.330;2023-05-10T13:44:42;2.07;;;1.87;;
2416;SDS011;1219;48.736;9.330;2023-05-10T13:47:08;1.70;;;1.47;;
2416;SDS011;1219;48.736;9.330;2023-05-10T13:49:35;3.47;;;1.90;;
2416;SDS011;1219;48.736;9.330;2023-05-10T13:52:01;1.53;;;1.40;;
2416;SDS011;1219;48.736;9.330;2023-05-10T13:54:32;4.53;;;1.70;;
2416;SDS011;1219;48.736;9.330;2023-05-10T13:56:58;2.97;;;1.80;;
2416;SDS011;1219;48.736;9.330;2023-05-10T13:59:24;1.60;;;1.50;;
2416;SDS011;1219;48.736;9.330;2023-05-10T14:01:50;1.73;;;1.37;;
2416;SDS011;1219;48.736;9.330;2023-05-10T14:04:16;2.80;;;1.70;;
2416;SDS011;1219;48.736;9.330;2023-05-10T14:06:42;1.67;;;1.57;;
2416;SDS011;1219;48.736;9.330;2023-05-10T14:09:08;1.97;;;1.77;;
2416;SDS011;1219;48.736;9.330;2023-05-10T14:11:34;5.40;;;2.10;;
2416;SDS011;1219;48.736;9.330;2023-05-10T14:14:00;4.93;;;1.87;;
2416;SDS011;1219;48.736;9.330;2023-05-10T14:16:26;6.23;;;1.70;;
2416;SDS011;1219;48.736;9.330;2023-05-10T14:18:52;2.20;;;1.50;;
2416;SDS011;1219;48.736;9.330;2023-05-10T14:21:18;7.37;;;1.73;;
2416;SDS011;1219;48.736;9.330;2023-05-10T14:23:44;2.80;;;1.50;;
2416;SDS011;1219;48.736;9.330;2023-05-10T14:26:10;1.60;;;1.50;;
2416;SDS011;1219;48.736;9.330;2023-05-10T14:28:37;1.80;;;1.70;;
2416;SDS011;1219;48.736;9.330;2023-05-10T14:31:02;1.77;;;1.53;;
2416;SDS011;1219;48.736;9.330;2023-05-10T14:33:28;1.70;;;1.60;;
2416;SDS011;1219;48.736;9.330;2023-05-10T14:35:54;11.17;;;1.90;;
2416;SDS011;1219;48.736;9.330;2023-05-10T14:38:22;1.90;;;1.70;;
2416;SDS011;1219;48.736;9.330;2023-05-10T14:40:48;2.93;;;1.70;;
2416;SDS011;1219;48.736;9.330;2023-05-10T14:43:14;3.87;;;1.60;;
2416;SDS011;1219;48.736;9.330;2023-05-10T14:45:40;2.87;;;1.67;;
2416;SDS011;1219;48.736;9.330;2023-05-10T14:48:06;2.07;;;1.80;;
2416;SDS011;1219;48.736;9.330;2023-05-10T14:50:36;1.73;;;1.63;;
2416;SDS011;1219;48.736;9.330;2023-05-10T14:53:02;4.03;;;1.60;;
2416;SDS011;1219;48.736;9.330;2023-05-10T14:55:28;5.57;;;2.00;;
2416;SDS011;1219;48.736;9.330;2023-05-10T14:57:53;2.00;;;1.73;;
2416;SDS011;1219;48.736;9.330;2023-05-10T15:00:20;1.97;;;1.80;;
2416;SDS011;1219;48.736;9.330;2023-05-10T15:02:46;2.43;;;2.23;;
2416;SDS011;1219;48.736;9.330;2023-05-10T15:05:12;6.50;;;1.90;;
2416;SDS011;1219;48.736;9.330;2023-05-10T15:07:39;2.43;;;1.90;;
2416;SDS011;1219;48.736;9.330;2023-05-10T15:10:05;2.00;;;1.90;;
2416;SDS011;1219;48.736;9.330;2023-05-10T15:12:31;2.83;;;1.70;;
2416;SDS011;1219;48.736;9.330;2023-05-10T15:14:57;2.60;;;1.70;;
2416;SDS011;1219;48.736;9.330;2023-05-10T15:17:23;2.13;;;1.93;;
2416;SDS011;1219;48.736;9.330;2023-05-10T15:19:49;1.90;;;1.70;;
2416;SDS011;1219;48.736;9.330;2023-05-10T15:22:15;3.00;;;1.90;;
2416;SDS011;1219;48.736;9.330;2023-05-10T15:24:41;3.70;;;2.40;;
2416;SDS011;1219;48.736;9.330;2023-05-10T15:27:07;2.50;;;2.30;;
2416;SDS011;1219;48.736;9.330;2023-05-10T15:29:33;2.57;;;2.27;;
2416;SDS011;1219;48.736;9.330;2023-05-10T15:32:00;10.07;;;2.10;;
2416;SDS011;1219;48.736;9.330;2023-05-10T15:34:27;2.13;;;1.53;;
2416;SDS011;1219;48.736;9.330;2023-05-10T15:36:54;6.20;;;2.23;;
2416;SDS011;1219;48.736;9.330;2023-05-10T15:39:20;8.17;;;3.37;;
2416;SDS011;1219;48.736;9.330;2023-05-10T15:41:46;3.60;;;2.87;;
2416;SDS011;1219;48.736;9.330;2023-05-10T15:44:12;2.90;;;2.60;;
2416;SDS011;1219;48.736;9.330;2023-05-10T15:46:38;3.33;;;2.07;;